sensor_id;sensor_type;location;lat;lon;timestamp;P1;durP1;ratioP1;P2;durP2;ratioP2
40339;SDS011;26044;50.864;20.658;2022-09-09T00:06:45;47.80;;;29.10;;
40339;SDS011;26044;50.864;20.658;2022-09-09T00:11:51;47.83;;;29.25;;
40339;SDS011;26044;50.864;20.658;2022-09-09T00:14:25;53.08;;;31.15;;
40339;SDS011;26044;50.864;20.658;2022-09-09T00:17:01;49.10;;;30.38;;
40339;SDS011;26044;50.864;20.658;2022-09-09T00:19:41;50.60;;;30.38;;
40339;SDS011;26044;50.864;20.658;2022-09-09T00:24:51;45.60;;;28.35;;
40339;SDS011;26044;50.864;20.658;2022-09-09T00:27:34;46.30;;;28.23;;
40339;SDS011;26044;50.864;20.658;2022-09-09T00:30:14;45.78;;;27.73;;
40339;SDS011;26044;50.864;20.658;2022-09-09T00:32:49;47.45;;;29.27;;
40339;SDS011;26044;50.864;20.658;2022-09-09T00:35:25;52.65;;;30.95;;
40339;SDS011;26044;50.864;20.658;2022-09-09T00:38:11;50.17;;;29.02;;
40339;SDS011;26044;50.864;20.658;2022-09-09T00:40:55;51.65;;;31.67;;
40339;SDS011;26044;50.864;20.658;2022-09-09T00:43:30;54.55;;;31.60;;
40339;SDS011;26044;50.864;20.658;2022-09-09T00:51:44;48.13;;;29.40;;
40339;SDS011;26044;50.864;20.658;2022-09-09T00:54:21;46.38;;;28.33;;
40339;SDS011;26044;50.864;20.658;2022-09-09T01:02:51;49.38;;;27.70;;
40339;SDS011;26044;50.864;20.658;2022-09-09T01:08:35;47.47;;;27.83;;
40339;SDS011;26044;50.864;20.658;2022-09-09T01:17:11;48.15;;;29.02;;
40339;SDS011;26044;50.864;20.658;2022-09-09T01:19:55;48.05;;;29.20;;
40339;SDS011;26044;50.864;20.658;2022-09-09T01:22:34;51.78;;;29.60;;
40339;SDS011;26044;50.864;20.658;2022-09-09T01:28:11;47.15;;;29.25;;
40339;SDS011;26044;50.864;20.658;2022-09-09T01:30:43;51.35;;;30.88;;
40339;SDS011;26044;50.864;20.658;2022-09-09T01:33:12;50.58;;;28.98;;
40339;SDS011;26044;50.864;20.658;2022-09-09T01:38:08;45.72;;;26.65;;
40339;SDS011;26044;50.864;20.658;2022-09-09T01:40:35;46.90;;;27.42;;
40339;SDS011;26044;50.864;20.658;2022-09-09T01:43:02;50.13;;;27.02;;
40339;SDS011;26044;50.864;20.658;2022-09-09T01:45:30;43.70;;;25.55;;
40339;SDS011;26044;50.864;20.658;2022-09-09T01:47:57;46.03;;;25.08;;
40339;SDS011;26044;50.864;20.658;2022-09-09T01:50:25;46.83;;;25.55;;
40339;SDS011;26044;50.864;20.658;2022-09-09T01:52:53;42.42;;;24.67;;
40339;SDS011;26044;50.864;20.658;2022-09-09T01:55:28;47.50;;;26.20;;
40339;SDS011;26044;50.864;20.658;2022-09-09T01:58:02;43.08;;;24.10;;
40339;SDS011;26044;50.864;20.658;2022-09-09T02:00:33;45.00;;;24.23;;
40339;SDS011;26044;50.864;20.658;2022-09-09T02:08:24;33.58;;;18.73;;
40339;SDS011;26044;50.864;20.658;2022-09-09T02:11:06;32.10;;;17.45;;
40339;SDS011;26044;50.864;20.658;2022-09-09T02:13:37;34.83;;;19.00;;
40339;SDS011;26044;50.864;20.658;2022-09-09T02:16:24;32.08;;;17.95;;
40339;SDS011;26044;50.864;20.658;2022-09-09T02:21:41;29.95;;;16.02;;
40339;SDS011;26044;50.864;20.658;2022-09-09T02:24:10;34.80;;;17.63;;
40339;SDS011;26044;50.864;20.658;2022-09-09T02:26:41;37.15;;;17.65;;
40339;SDS011;26044;50.864;20.658;2022-09-09T02:29:14;33.17;;;16.80;;
40339;SDS011;26044;50.864;20.658;2022-09-09T02:31:43;31.58;;;16.67;;
40339;SDS011;26044;50.864;20.658;2022-09-09T02:34:11;32.00;;;17.10;;
40339;SDS011;26044;50.864;20.658;2022-09-09T02:36:40;33.45;;;17.00;;
40339;SDS011;26044;50.864;20.658;2022-09-09T02:39:10;32.67;;;16.83;;
40339;SDS011;26044;50.864;20.658;2022-09-09T02:41:38;31.00;;;16.40;;
40339;SDS011;26044;50.864;20.658;2022-09-09T02:44:10;31.17;;;16.10;;
40339;SDS011;26044;50.864;20.658;2022-09-09T02:52:20;33.40;;;17.58;;
40339;SDS011;26044;50.864;20.658;2022-09-09T02:54:54;34.65;;;18.27;;
40339;SDS011;26044;50.864;20.658;2022-09-09T02:57:31;33.90;;;19.05;;
40339;SDS011;26044;50.864;20.658;2022-09-09T02:59:59;32.85;;;18.95;;
40339;SDS011;26044;50.864;20.658;2022-09-09T03:02:26;35.45;;;20.13;;
40339;SDS011;26044;50.864;20.658;2022-09-09T03:04:53;34.50;;;19.52;;
40339;SDS011;26044;50.864;20.658;2022-09-09T03:07:20;35.90;;;20.33;;
40339;SDS011;26044;50.864;20.658;2022-09-09T03:09:48;36.38;;;19.50;;
40339;SDS011;26044;50.864;20.658;2022-09-09T03:12:15;36.65;;;20.55;;
40339;SDS011;26044;50.864;20.658;2022-09-09T03:14:42;33.67;;;19.90;;
40339;SDS011;26044;50.864;20.658;2022-09-09T03:17:11;35.78;;;20.35;;
40339;SDS011;26044;50.864;20.658;2022-09-09T03:19:38;34.13;;;18.48;;
40339;SDS011;26044;50.864;20.658;2022-09-09T03:22:05;36.40;;;20.80;;
40339;SDS011;26044;50.864;20.658;2022-09-09T03:24:32;33.95;;;19.23;;
40339;SDS011;26044;50.864;20.658;2022-09-09T03:26:58;35.47;;;19.80;;
40339;SDS011;26044;50.864;20.658;2022-09-09T03:29:25;34.20;;;20.15;;
40339;SDS011;26044;50.864;20.658;2022-09-09T03:31:52;34.72;;;19.60;;
40339;SDS011;26044;50.864;20.658;2022-09-09T03:34:18;35.53;;;20.35;;
40339;SDS011;26044;50.864;20.658;2022-09-09T03:36:45;33.88;;;20.45;;
40339;SDS011;26044;50.864;20.658;2022-09-09T03:39:14;38.20;;;22.55;;
40339;SDS011;26044;50.864;20.658;2022-09-09T03:41:41;41.28;;;23.75;;
40339;SDS011;26044;50.864;20.658;2022-09-09T03:44:08;38.17;;;22.73;;
40339;SDS011;26044;50.864;20.658;2022-09-09T03:46:34;34.50;;;21.75;;
40339;SDS011;26044;50.864;20.658;2022-09-09T03:49:01;37.70;;;23.00;;
40339;SDS011;26044;50.864;20.658;2022-09-09T03:51:28;37.78;;;23.60;;
40339;SDS011;26044;50.864;20.658;2022-09-09T03:53:55;39.17;;;22.38;;
40339;SDS011;26044;50.864;20.658;2022-09-09T03:56:22;38.88;;;21.67;;
40339;SDS011;26044;50.864;20.658;2022-09-09T03:58:49;32.75;;;19.63;;
40339;SDS011;26044;50.864;20.658;2022-09-09T04:01:16;33.92;;;19.98;;
40339;SDS011;26044;50.864;20.658;2022-09-09T04:03:44;36.80;;;21.35;;
40339;SDS011;26044;50.864;20.658;2022-09-09T04:06:12;38.17;;;23.42;;
40339;SDS011;26044;50.864;20.658;2022-09-09T04:08:41;35.67;;;21.73;;
40339;SDS011;26044;50.864;20.658;2022-09-09T04:11:08;33.53;;;19.80;;
40339;SDS011;26044;50.864;20.658;2022-09-09T04:13:36;34.47;;;20.88;;
40339;SDS011;26044;50.864;20.658;2022-09-09T04:16:05;32.83;;;19.55;;
40339;SDS011;26044;50.864;20.658;2022-09-09T04:18:32;36.17;;;19.98;;
40339;SDS011;26044;50.864;20.658;2022-09-09T04:21:00;33.67;;;19.70;;
40339;SDS011;26044;50.864;20.658;2022-09-09T04:23:28;36.92;;;18.83;;
40339;SDS011;26044;50.864;20.658;2022-09-09T04:25:55;32.35;;;19.85;;
40339;SDS011;26044;50.864;20.658;2022-09-09T04:28:24;29.70;;;17.83;;
40339;SDS011;26044;50.864;20.658;2022-09-09T04:30:52;32.88;;;18.95;;
40339;SDS011;26044;50.864;20.658;2022-09-09T04:33:19;36.25;;;18.58;;
40339;SDS011;26044;50.864;20.658;2022-09-09T04:35:48;31.83;;;18.20;;
40339;SDS011;26044;50.864;20.658;2022-09-09T04:38:16;35.70;;;21.48;;
40339;SDS011;26044;50.864;20.658;2022-09-09T04:40:46;31.90;;;19.73;;
40339;SDS011;26044;50.864;20.658;2022-09-09T04:45:41;42.35;;;23.40;;
40339;SDS011;26044;50.864;20.658;2022-09-09T04:48:08;35.30;;;20.52;;
40339;SDS011;26044;50.864;20.658;2022-09-09T04:50:35;31.20;;;18.63;;
40339;SDS011;26044;50.864;20.658;2022-09-09T04:53:03;35.20;;;19.63;;
40339;SDS011;26044;50.864;20.658;2022-09-09T04:55:31;30.98;;;18.90;;
40339;SDS011;26044;50.864;20.658;2022-09-09T04:58:03;33.45;;;19.83;;
40339;SDS011;26044;50.864;20.658;2022-09-09T05:00:31;36.13;;;20.90;;
40339;SDS011;26044;50.864;20.658;2022-09-09T05:03:02;41.28;;;21.75;;
40339;SDS011;26044;50.864;20.658;2022-09-09T05:05:30;32.25;;;19.08;;
40339;SDS011;26044;50.864;20.658;2022-09-09T05:08:04;35.22;;;20.48;;
40339;SDS011;26044;50.864;20.658;2022-09-09T05:10:32;31.95;;;19.02;;
40339;SDS011;26044;50.864;20.658;2022-09-09T05:12:59;35.47;;;20.27;;
40339;SDS011;26044;50.864;20.658;2022-09-09T05:15:26;36.53;;;21.08;;
40339;SDS011;26044;50.864;20.658;2022-09-09T05:17:56;32.88;;;20.38;;
40339;SDS011;26044;50.864;20.658;2022-09-09T05:20:25;33.92;;;19.88;;
40339;SDS011;26044;50.864;20.658;2022-09-09T05:22:55;36.75;;;21.42;;
40339;SDS011;26044;50.864;20.658;2022-09-09T05:25:23;33.60;;;19.35;;
40339;SDS011;26044;50.864;20.658;2022-09-09T05:27:52;30.58;;;19.08;;
40339;SDS011;26044;50.864;20.658;2022-09-09T05:30:20;30.63;;;18.42;;
40339;SDS011;26044;50.864;20.658;2022-09-09T05:32:48;30.15;;;17.98;;
40339;SDS011;26044;50.864;20.658;2022-09-09T05:35:15;30.98;;;19.40;;
40339;SDS011;26044;50.864;20.658;2022-09-09T05:37:42;32.95;;;19.90;;
40339;SDS011;26044;50.864;20.658;2022-09-09T05:40:09;34.92;;;18.85;;
40339;SDS011;26044;50.864;20.658;2022-09-09T05:42:37;38.10;;;22.48;;
40339;SDS011;26044;50.864;20.658;2022-09-09T05:45:04;36.08;;;21.15;;
40339;SDS011;26044;50.864;20.658;2022-09-09T05:47:34;35.60;;;22.02;;
40339;SDS011;26044;50.864;20.658;2022-09-09T05:50:03;31.13;;;18.70;;
40339;SDS011;26044;50.864;20.658;2022-09-09T05:52:30;35.05;;;19.63;;
40339;SDS011;26044;50.864;20.658;2022-09-09T05:54:58;31.60;;;18.98;;
40339;SDS011;26044;50.864;20.658;2022-09-09T05:57:25;31.80;;;18.27;;
40339;SDS011;26044;50.864;20.658;2022-09-09T05:59:52;33.08;;;19.55;;
40339;SDS011;26044;50.864;20.658;2022-09-09T06:02:19;34.03;;;18.52;;
40339;SDS011;26044;50.864;20.658;2022-09-09T06:04:46;31.60;;;16.42;;
40339;SDS011;26044;50.864;20.658;2022-09-09T06:07:13;30.70;;;16.15;;
40339;SDS011;26044;50.864;20.658;2022-09-09T06:09:40;32.30;;;17.80;;
40339;SDS011;26044;50.864;20.658;2022-09-09T06:12:07;30.55;;;16.80;;
40339;SDS011;26044;50.864;20.658;2022-09-09T06:14:34;35.53;;;17.92;;
40339;SDS011;26044;50.864;20.658;2022-09-09T06:17:00;34.45;;;16.95;;
40339;SDS011;26044;50.864;20.658;2022-09-09T06:19:28;27.80;;;16.25;;
40339;SDS011;26044;50.864;20.658;2022-09-09T06:21:55;30.02;;;17.00;;
40339;SDS011;26044;50.864;20.658;2022-09-09T06:24:21;27.98;;;15.98;;
40339;SDS011;26044;50.864;20.658;2022-09-09T06:26:48;28.60;;;15.07;;
40339;SDS011;26044;50.864;20.658;2022-09-09T06:29:15;27.55;;;15.18;;
40339;SDS011;26044;50.864;20.658;2022-09-09T06:31:41;25.85;;;15.07;;
40339;SDS011;26044;50.864;20.658;2022-09-09T06:34:08;27.30;;;15.68;;
40339;SDS011;26044;50.864;20.658;2022-09-09T06:36:36;29.48;;;15.93;;
40339;SDS011;26044;50.864;20.658;2022-09-09T06:39:05;28.30;;;14.95;;
40339;SDS011;26044;50.864;20.658;2022-09-09T06:41:39;24.13;;;13.90;;
40339;SDS011;26044;50.864;20.658;2022-09-09T06:44:06;25.02;;;13.18;;
40339;SDS011;26044;50.864;20.658;2022-09-09T06:46:33;26.77;;;13.90;;
40339;SDS011;26044;50.864;20.658;2022-09-09T06:49:01;21.02;;;11.63;;
40339;SDS011;26044;50.864;20.658;2022-09-09T06:51:33;23.13;;;11.98;;
40339;SDS011;26044;50.864;20.658;2022-09-09T06:54:02;21.77;;;12.95;;
40339;SDS011;26044;50.864;20.658;2022-09-09T06:56:33;20.70;;;11.32;;
40339;SDS011;26044;50.864;20.658;2022-09-09T06:59:06;22.98;;;12.85;;
40339;SDS011;26044;50.864;20.658;2022-09-09T07:01:35;25.67;;;14.30;;
40339;SDS011;26044;50.864;20.658;2022-09-09T07:04:04;24.10;;;12.48;;
40339;SDS011;26044;50.864;20.658;2022-09-09T07:06:34;26.33;;;15.55;;
40339;SDS011;26044;50.864;20.658;2022-09-09T07:09:03;25.77;;;13.07;;
40339;SDS011;26044;50.864;20.658;2022-09-09T07:11:33;25.35;;;13.93;;
40339;SDS011;26044;50.864;20.658;2022-09-09T07:14:03;24.48;;;13.18;;
40339;SDS011;26044;50.864;20.658;2022-09-09T07:16:30;24.63;;;12.20;;
40339;SDS011;26044;50.864;20.658;2022-09-09T07:19:03;23.10;;;12.65;;
40339;SDS011;26044;50.864;20.658;2022-09-09T07:21:30;27.92;;;12.43;;
40339;SDS011;26044;50.864;20.658;2022-09-09T07:23:58;21.77;;;11.00;;
40339;SDS011;26044;50.864;20.658;2022-09-09T07:26:26;22.13;;;11.02;;
40339;SDS011;26044;50.864;20.658;2022-09-09T07:28:55;22.75;;;12.35;;
40339;SDS011;26044;50.864;20.658;2022-09-09T07:31:24;23.92;;;12.20;;
40339;SDS011;26044;50.864;20.658;2022-09-09T07:33:57;21.48;;;11.02;;
40339;SDS011;26044;50.864;20.658;2022-09-09T07:36:29;22.83;;;11.75;;
40339;SDS011;26044;50.864;20.658;2022-09-09T07:39:01;26.17;;;12.82;;
40339;SDS011;26044;50.864;20.658;2022-09-09T07:41:32;28.00;;;11.88;;
40339;SDS011;26044;50.864;20.658;2022-09-09T07:44:05;22.33;;;11.18;;
40339;SDS011;26044;50.864;20.658;2022-09-09T07:46:33;26.45;;;11.25;;
40339;SDS011;26044;50.864;20.658;2022-09-09T07:49:01;27.23;;;11.50;;
40339;SDS011;26044;50.864;20.658;2022-09-09T07:51:30;24.00;;;12.98;;
40339;SDS011;26044;50.864;20.658;2022-09-09T07:54:03;22.55;;;11.07;;
40339;SDS011;26044;50.864;20.658;2022-09-09T07:56:31;27.48;;;12.00;;
40339;SDS011;26044;50.864;20.658;2022-09-09T07:58:59;23.05;;;11.70;;
40339;SDS011;26044;50.864;20.658;2022-09-09T08:01:28;23.45;;;11.95;;
40339;SDS011;26044;50.864;20.658;2022-09-09T08:04:01;20.92;;;10.35;;
40339;SDS011;26044;50.864;20.658;2022-09-09T08:06:34;21.27;;;10.05;;
40339;SDS011;26044;50.864;20.658;2022-09-09T08:09:03;20.95;;;9.93;;
40339;SDS011;26044;50.864;20.658;2022-09-09T08:11:31;19.33;;;9.82;;
40339;SDS011;26044;50.864;20.658;2022-09-09T08:14:04;30.00;;;11.48;;
40339;SDS011;26044;50.864;20.658;2022-09-09T08:16:34;21.83;;;10.07;;
40339;SDS011;26044;50.864;20.658;2022-09-09T08:19:04;23.05;;;10.00;;
40339;SDS011;26044;50.864;20.658;2022-09-09T08:21:32;22.35;;;10.82;;
40339;SDS011;26044;50.864;20.658;2022-09-09T08:26:37;23.60;;;10.07;;
40339;SDS011;26044;50.864;20.658;2022-09-09T08:29:06;16.55;;;8.07;;
40339;SDS011;26044;50.864;20.658;2022-09-09T08:31:35;19.05;;;9.38;;
40339;SDS011;26044;50.864;20.658;2022-09-09T08:34:04;17.80;;;8.70;;
40339;SDS011;26044;50.864;20.658;2022-09-09T08:36:33;20.08;;;8.13;;
40339;SDS011;26044;50.864;20.658;2022-09-09T08:39:03;18.02;;;8.35;;
40339;SDS011;26044;50.864;20.658;2022-09-09T08:47:07;25.27;;;8.88;;
40339;SDS011;26044;50.864;20.658;2022-09-09T08:52:40;25.17;;;9.68;;
40339;SDS011;26044;50.864;20.658;2022-09-09T08:55:35;14.57;;;7.72;;
40339;SDS011;26044;50.864;20.658;2022-09-09T08:58:34;15.93;;;7.47;;
40339;SDS011;26044;50.864;20.658;2022-09-09T09:01:16;18.70;;;7.63;;
40339;SDS011;26044;50.864;20.658;2022-09-09T09:07:08;14.50;;;7.32;;
40339;SDS011;26044;50.864;20.658;2022-09-09T09:12:58;16.38;;;6.88;;
40339;SDS011;26044;50.864;20.658;2022-09-09T09:15:30;15.00;;;6.55;;
40339;SDS011;26044;50.864;20.658;2022-09-09T09:18:03;12.90;;;6.82;;
40339;SDS011;26044;50.864;20.658;2022-09-09T09:23:59;19.10;;;7.47;;
40339;SDS011;26044;50.864;20.658;2022-09-09T09:26:30;11.25;;;6.03;;
40339;SDS011;26044;50.864;20.658;2022-09-09T09:29:33;12.82;;;6.65;;
40339;SDS011;26044;50.864;20.658;2022-09-09T09:31:54;13.18;;;6.68;;
40339;SDS011;26044;50.864;20.658;2022-09-09T09:34:23;12.20;;;5.82;;
40339;SDS011;26044;50.864;20.658;2022-09-09T09:36:56;13.80;;;6.78;;
40339;SDS011;26044;50.864;20.658;2022-09-09T09:39:29;11.70;;;6.15;;
40339;SDS011;26044;50.864;20.658;2022-09-09T09:42:22;13.93;;;6.43;;
40339;SDS011;26044;50.864;20.658;2022-09-09T09:44:49;16.42;;;6.32;;
40339;SDS011;26044;50.864;20.658;2022-09-09T09:47:17;11.05;;;5.65;;
40339;SDS011;26044;50.864;20.658;2022-09-09T09:52:21;9.70;;;5.60;;
40339;SDS011;26044;50.864;20.658;2022-09-09T09:54:50;14.07;;;5.70;;
40339;SDS011;26044;50.864;20.658;2022-09-09T09:57:18;10.45;;;5.35;;
40339;SDS011;26044;50.864;20.658;2022-09-09T10:00:03;8.85;;;4.60;;
40339;SDS011;26044;50.864;20.658;2022-09-09T10:02:45;12.20;;;4.97;;
40339;SDS011;26044;50.864;20.658;2022-09-09T10:05:14;10.68;;;5.18;;
40339;SDS011;26044;50.864;20.658;2022-09-09T10:07:41;9.38;;;5.22;;
40339;SDS011;26044;50.864;20.658;2022-09-09T10:10:20;11.30;;;5.53;;
40339;SDS011;26044;50.864;20.658;2022-09-09T10:13:03;13.75;;;5.38;;
40339;SDS011;26044;50.864;20.658;2022-09-09T10:27:04;6.88;;;4.15;;
40339;SDS011;26044;50.864;20.658;2022-09-09T10:35:33;9.82;;;4.70;;
40339;SDS011;26044;50.864;20.658;2022-09-09T10:38:10;6.72;;;3.78;;
40339;SDS011;26044;50.864;20.658;2022-09-09T10:46:46;7.05;;;4.10;;
40339;SDS011;26044;50.864;20.658;2022-09-09T10:49:37;7.30;;;4.22;;
40339;SDS011;26044;50.864;20.658;2022-09-09T10:55:20;8.50;;;4.30;;
40339;SDS011;26044;50.864;20.658;2022-09-09T10:57:55;7.90;;;3.80;;
40339;SDS011;26044;50.864;20.658;2022-09-09T11:00:26;7.70;;;4.20;;
40339;SDS011;26044;50.864;20.658;2022-09-09T11:03:03;7.97;;;4.00;;
40339;SDS011;26044;50.864;20.658;2022-09-09T11:05:46;6.45;;;3.70;;
40339;SDS011;26044;50.864;20.658;2022-09-09T11:08:19;7.90;;;3.80;;
40339;SDS011;26044;50.864;20.658;2022-09-09T11:13:28;5.97;;;3.78;;
40339;SDS011;26044;50.864;20.658;2022-09-09T11:16:06;9.57;;;4.30;;
40339;SDS011;26044;50.864;20.658;2022-09-09T11:18:40;8.20;;;3.72;;
40339;SDS011;26044;50.864;20.658;2022-09-09T11:21:15;6.68;;;3.75;;
40339;SDS011;26044;50.864;20.658;2022-09-09T11:23:52;8.38;;;3.90;;
40339;SDS011;26044;50.864;20.658;2022-09-09T11:26:32;8.48;;;4.00;;
40339;SDS011;26044;50.864;20.658;2022-09-09T11:29:13;9.10;;;4.10;;
40339;SDS011;26044;50.864;20.658;2022-09-09T11:32:04;6.53;;;3.53;;
40339;SDS011;26044;50.864;20.658;2022-09-09T11:40:27;6.18;;;3.80;;
40339;SDS011;26044;50.864;20.658;2022-09-09T11:43:39;12.60;;;4.07;;
40339;SDS011;26044;50.864;20.658;2022-09-09T11:45:53;7.85;;;3.60;;
40339;SDS011;26044;50.864;20.658;2022-09-09T11:48:33;7.78;;;3.67;;
40339;SDS011;26044;50.864;20.658;2022-09-09T11:51:04;11.57;;;3.60;;
40339;SDS011;26044;50.864;20.658;2022-09-09T11:53:51;7.07;;;3.75;;
40339;SDS011;26044;50.864;20.658;2022-09-09T11:56:30;4.85;;;3.28;;
40339;SDS011;26044;50.864;20.658;2022-09-09T11:59:05;8.70;;;3.97;;
40339;SDS011;26044;50.864;20.658;2022-09-09T12:01:43;5.78;;;3.28;;
40339;SDS011;26044;50.864;20.658;2022-09-09T12:04:13;5.90;;;3.67;;
40339;SDS011;26044;50.864;20.658;2022-09-09T12:06:53;9.38;;;3.60;;
40339;SDS011;26044;50.864;20.658;2022-09-09T12:09:28;6.30;;;3.58;;
40339;SDS011;26044;50.864;20.658;2022-09-09T12:12:22;6.95;;;3.75;;
40339;SDS011;26044;50.864;20.658;2022-09-09T12:14:59;5.72;;;3.50;;
40339;SDS011;26044;50.864;20.658;2022-09-09T12:17:41;8.18;;;3.47;;
40339;SDS011;26044;50.864;20.658;2022-09-09T12:20:14;6.55;;;3.40;;
40339;SDS011;26044;50.864;20.658;2022-09-09T12:34:16;6.13;;;4.15;;
40339;SDS011;26044;50.864;20.658;2022-09-09T12:37:13;4.75;;;3.25;;
40339;SDS011;26044;50.864;20.658;2022-09-09T12:39:45;5.40;;;3.58;;
40339;SDS011;26044;50.864;20.658;2022-09-09T12:42:23;7.40;;;3.85;;
40339;SDS011;26044;50.864;20.658;2022-09-09T12:44:54;9.35;;;4.07;;
40339;SDS011;26044;50.864;20.658;2022-09-09T12:47:28;8.98;;;4.18;;
40339;SDS011;26044;50.864;20.658;2022-09-09T12:50:20;8.38;;;4.15;;
40339;SDS011;26044;50.864;20.658;2022-09-09T12:52:49;5.75;;;3.60;;
40339;SDS011;26044;50.864;20.658;2022-09-09T12:55:28;10.38;;;4.30;;
40339;SDS011;26044;50.864;20.658;2022-09-09T12:57:57;10.38;;;4.07;;
40339;SDS011;26044;50.864;20.658;2022-09-09T13:00:25;7.40;;;3.78;;
40339;SDS011;26044;50.864;20.658;2022-09-09T13:02:56;5.28;;;3.42;;
40339;SDS011;26044;50.864;20.658;2022-09-09T13:05:35;7.13;;;3.80;;
40339;SDS011;26044;50.864;20.658;2022-09-09T13:08:04;6.20;;;3.50;;
40339;SDS011;26044;50.864;20.658;2022-09-09T13:13:28;4.43;;;3.28;;
40339;SDS011;26044;50.864;20.658;2022-09-09T13:16:03;5.47;;;3.22;;
40339;SDS011;26044;50.864;20.658;2022-09-09T13:18:35;8.20;;;3.88;;
40339;SDS011;26044;50.864;20.658;2022-09-09T13:21:04;6.35;;;3.80;;
40339;SDS011;26044;50.864;20.658;2022-09-09T13:23:32;8.80;;;4.07;;
40339;SDS011;26044;50.864;20.658;2022-09-09T13:26:02;8.70;;;3.85;;
40339;SDS011;26044;50.864;20.658;2022-09-09T13:28:32;7.53;;;3.83;;
40339;SDS011;26044;50.864;20.658;2022-09-09T13:31:01;7.72;;;3.72;;
40339;SDS011;26044;50.864;20.658;2022-09-09T13:33:36;5.95;;;3.22;;
40339;SDS011;26044;50.864;20.658;2022-09-09T13:36:05;5.97;;;3.35;;
40339;SDS011;26044;50.864;20.658;2022-09-09T13:38:38;6.60;;;3.30;;
40339;SDS011;26044;50.864;20.658;2022-09-09T13:41:24;6.57;;;3.45;;
40339;SDS011;26044;50.864;20.658;2022-09-09T13:43:54;5.95;;;3.20;;
40339;SDS011;26044;50.864;20.658;2022-09-09T13:51:38;5.25;;;3.42;;
40339;SDS011;26044;50.864;20.658;2022-09-09T13:54:09;6.45;;;3.63;;
40339;SDS011;26044;50.864;20.658;2022-09-09T13:56:37;6.53;;;3.70;;
40339;SDS011;26044;50.864;20.658;2022-09-09T13:59:05;5.07;;;3.50;;
40339;SDS011;26044;50.864;20.658;2022-09-09T14:01:37;6.78;;;3.78;;
40339;SDS011;26044;50.864;20.658;2022-09-09T14:04:03;5.72;;;3.45;;
40339;SDS011;26044;50.864;20.658;2022-09-09T14:06:33;7.97;;;3.58;;
40339;SDS011;26044;50.864;20.658;2022-09-09T14:09:03;4.75;;;3.10;;
40339;SDS011;26044;50.864;20.658;2022-09-09T14:11:36;6.07;;;3.40;;
40339;SDS011;26044;50.864;20.658;2022-09-09T14:14:02;5.82;;;3.03;;
40339;SDS011;26044;50.864;20.658;2022-09-09T14:16:29;6.10;;;3.50;;
40339;SDS011;26044;50.864;20.658;2022-09-09T14:18:56;8.15;;;3.30;;
40339;SDS011;26044;50.864;20.658;2022-09-09T14:21:23;7.95;;;3.55;;
40339;SDS011;26044;50.864;20.658;2022-09-09T14:23:51;7.32;;;3.60;;
40339;SDS011;26044;50.864;20.658;2022-09-09T14:26:21;8.48;;;3.70;;
40339;SDS011;26044;50.864;20.658;2022-09-09T14:28:50;9.63;;;3.55;;
40339;SDS011;26044;50.864;20.658;2022-09-09T14:31:22;8.35;;;3.70;;
40339;SDS011;26044;50.864;20.658;2022-09-09T14:33:49;7.90;;;3.45;;
40339;SDS011;26044;50.864;20.658;2022-09-09T14:36:17;10.05;;;3.70;;
40339;SDS011;26044;50.864;20.658;2022-09-09T14:38:43;5.28;;;3.20;;
40339;SDS011;26044;50.864;20.658;2022-09-09T14:41:11;7.70;;;3.55;;
40339;SDS011;26044;50.864;20.658;2022-09-09T14:43:39;7.20;;;3.10;;
40339;SDS011;26044;50.864;20.658;2022-09-09T14:46:06;21.67;;;4.90;;
40339;SDS011;26044;50.864;20.658;2022-09-09T14:48:35;5.30;;;3.13;;
40339;SDS011;26044;50.864;20.658;2022-09-09T14:51:09;5.85;;;2.80;;
40339;SDS011;26044;50.864;20.658;2022-09-09T14:53:39;5.18;;;2.78;;
40339;SDS011;26044;50.864;20.658;2022-09-09T14:56:09;7.72;;;3.42;;
40339;SDS011;26044;50.864;20.658;2022-09-09T14:58:42;6.20;;;3.13;;
40339;SDS011;26044;50.864;20.658;2022-09-09T15:01:14;7.38;;;3.15;;
40339;SDS011;26044;50.864;20.658;2022-09-09T15:03:48;5.85;;;3.80;;
40339;SDS011;26044;50.864;20.658;2022-09-09T15:06:24;12.88;;;4.18;;
40339;SDS011;26044;50.864;20.658;2022-09-09T15:08:52;9.32;;;4.13;;
40339;SDS011;26044;50.864;20.658;2022-09-09T15:11:19;10.05;;;3.72;;
40339;SDS011;26044;50.864;20.658;2022-09-09T15:13:50;6.22;;;3.33;;
40339;SDS011;26044;50.864;20.658;2022-09-09T15:16:19;7.53;;;3.92;;
40339;SDS011;26044;50.864;20.658;2022-09-09T15:18:50;6.28;;;3.80;;
40339;SDS011;26044;50.864;20.658;2022-09-09T15:21:18;8.52;;;4.10;;
40339;SDS011;26044;50.864;20.658;2022-09-09T15:23:46;6.93;;;3.50;;
40339;SDS011;26044;50.864;20.658;2022-09-09T15:26:17;6.97;;;3.92;;
40339;SDS011;26044;50.864;20.658;2022-09-09T15:28:45;10.95;;;4.88;;
40339;SDS011;26044;50.864;20.658;2022-09-09T15:31:14;10.98;;;4.60;;
40339;SDS011;26044;50.864;20.658;2022-09-09T15:33:52;9.93;;;4.22;;
40339;SDS011;26044;50.864;20.658;2022-09-09T15:36:33;11.25;;;4.47;;
40339;SDS011;26044;50.864;20.658;2022-09-09T15:39:02;12.43;;;4.78;;
40339;SDS011;26044;50.864;20.658;2022-09-09T15:41:30;10.93;;;4.63;;
40339;SDS011;26044;50.864;20.658;2022-09-09T15:46:28;7.32;;;3.97;;
40339;SDS011;26044;50.864;20.658;2022-09-09T15:49:09;12.48;;;5.47;;
40339;SDS011;26044;50.864;20.658;2022-09-09T15:51:37;13.90;;;6.38;;
40339;SDS011;26044;50.864;20.658;2022-09-09T15:54:10;13.82;;;6.75;;
40339;SDS011;26044;50.864;20.658;2022-09-09T15:56:38;18.23;;;7.43;;
40339;SDS011;26044;50.864;20.658;2022-09-09T15:59:05;16.50;;;7.15;;
40339;SDS011;26044;50.864;20.658;2022-09-09T16:01:32;16.83;;;7.18;;
40339;SDS011;26044;50.864;20.658;2022-09-09T16:04:00;17.83;;;8.18;;
40339;SDS011;26044;50.864;20.658;2022-09-09T16:06:28;17.58;;;7.75;;
40339;SDS011;26044;50.864;20.658;2022-09-09T16:08:56;19.83;;;7.65;;
40339;SDS011;26044;50.864;20.658;2022-09-09T16:11:25;18.67;;;8.15;;
40339;SDS011;26044;50.864;20.658;2022-09-09T16:13:54;23.48;;;8.23;;
40339;SDS011;26044;50.864;20.658;2022-09-09T16:16:22;18.60;;;9.05;;
40339;SDS011;26044;50.864;20.658;2022-09-09T16:18:52;18.80;;;8.27;;
40339;SDS011;26044;50.864;20.658;2022-09-09T16:21:27;19.67;;;8.70;;
40339;SDS011;26044;50.864;20.658;2022-09-09T16:23:59;21.13;;;8.55;;
40339;SDS011;26044;50.864;20.658;2022-09-09T16:26:27;16.98;;;8.25;;
40339;SDS011;26044;50.864;20.658;2022-09-09T16:28:54;18.75;;;8.50;;
40339;SDS011;26044;50.864;20.658;2022-09-09T16:31:22;19.17;;;9.45;;
40339;SDS011;26044;50.864;20.658;2022-09-09T16:33:50;21.23;;;8.65;;
40339;SDS011;26044;50.864;20.658;2022-09-09T16:36:18;21.90;;;9.63;;
40339;SDS011;26044;50.864;20.658;2022-09-09T16:38:47;23.48;;;9.32;;
40339;SDS011;26044;50.864;20.658;2022-09-09T16:41:14;19.20;;;9.15;;
40339;SDS011;26044;50.864;20.658;2022-09-09T16:43:40;18.33;;;9.23;;
40339;SDS011;26044;50.864;20.658;2022-09-09T16:46:12;18.50;;;8.68;;
40339;SDS011;26044;50.864;20.658;2022-09-09T16:48:42;19.15;;;9.30;;
40339;SDS011;26044;50.864;20.658;2022-09-09T16:53:46;19.70;;;9.40;;
40339;SDS011;26044;50.864;20.658;2022-09-09T16:56:16;21.08;;;9.40;;
40339;SDS011;26044;50.864;20.658;2022-09-09T16:58:51;19.40;;;9.88;;